createdAt,value
2023-01-18T13:07:07.571Z,12.84
2023-01-18T13:08:07.457Z,25.00
2023-01-18T13:09:07.344Z,25.00
2023-01-18T13:10:07.250Z,25.00
2023-01-18T13:11:07.167Z,26.02
2023-01-18T13:12:07.102Z,27.09
2023-01-18T13:13:06.985Z,27.29
2023-01-18T13:15:06.793Z,26.94
2023-01-18T13:16:06.713Z,25.76
2023-01-18T13:17:06.647Z,25.00
2023-01-18T13:18:06.617Z,25.17
2023-01-18T13:19:06.606Z,25.16
2023-01-18T13:20:06.561Z,25.22
2023-01-18T13:21:06.532Z,28.02
2023-01-18T13:22:06.508Z,29.24
2023-01-18T13:23:06.473Z,25.54
2023-01-18T13:24:06.442Z,25.22
2023-01-18T13:25:06.422Z,26.84
2023-01-18T13:26:06.421Z,27.75
2023-01-18T13:27:06.374Z,25.02
2023-01-18T13:28:06.352Z,27.66
2023-01-18T13:29:06.314Z,26.85
2023-01-18T13:30:06.292Z,27.47
2023-01-18T13:31:06.405Z,25.00
2023-01-18T13:32:06.238Z,27.72
2023-01-18T13:33:06.225Z,26.36
2023-01-18T13:34:06.198Z,27.81
2023-01-18T13:35:19.608Z,27.05
2023-01-18T13:36:07.127Z,27.06
2023-01-18T13:37:15.062Z,22.93
2023-01-18T13:38:06.887Z,26.45
2023-01-18T13:39:05.782Z,23.23
2023-01-18T13:40:05.696Z,21.74
2023-01-18T13:41:05.605Z,22.27
2023-01-18T13:42:05.518Z,17.46
2023-01-18T14:49:00.220Z,58.34
2023-01-18T14:50:00.141Z,59.10
2023-01-18T14:51:00.049Z,60.67
2023-01-18T14:51:59.979Z,58.54
2023-01-18T14:53:00.428Z,60.71
2023-01-18T14:53:59.807Z,62.25
2023-01-18T14:54:59.728Z,62.53
2023-01-18T14:55:59.652Z,60.72
2023-01-18T14:56:59.567Z,61.55
2023-01-18T14:57:59.497Z,64.40
2023-01-18T14:58:59.429Z,62.66
2023-01-18T14:59:59.332Z,66.50
2023-01-18T15:00:59.348Z,67.47
2023-01-18T15:01:59.354Z,68.63
2023-01-18T15:02:59.385Z,65.65
2023-01-18T15:03:59.019Z,66.65
2023-01-18T15:04:58.942Z,66.73
2023-01-18T15:05:58.852Z,67.57
2023-01-18T15:06:58.767Z,69.98
2023-01-18T15:07:58.705Z,71.42
2023-01-18T15:08:58.628Z,71.05
2023-01-18T15:09:58.548Z,70.13
2023-01-18T15:10:58.469Z,72.36
2023-01-18T15:11:58.397Z,70.88
2023-01-18T15:12:58.759Z,70.33
2023-01-18T15:13:58.283Z,61.86
2023-01-18T15:14:58.187Z,65.99
2023-01-18T15:16:00.975Z,68.23
2023-01-18T15:16:58.035Z,69.68
2023-01-18T15:17:58.319Z,67.66
2023-01-18T15:18:57.835Z,70.70
2023-01-18T15:19:57.739Z,70.63
2023-01-18T15:20:57.652Z,69.75
2023-01-18T15:21:57.540Z,70.69
2023-01-18T15:22:57.811Z,69.42
2023-01-18T15:23:57.356Z,72.96
2023-01-18T15:24:57.254Z,72.78
2023-01-18T15:25:57.168Z,72.30
2023-01-18T15:26:57.071Z,75.38
2023-01-18T15:27:56.986Z,72.45
2023-01-18T15:28:56.887Z,72.83
2023-01-18T15:29:56.824Z,75.49
2023-01-18T15:30:56.714Z,73.51
2023-01-18T15:31:56.635Z,73.64
2023-01-18T15:32:56.651Z,73.82
2023-01-18T15:33:56.421Z,74.49
2023-01-18T15:34:56.323Z,79.93
2023-01-18T15:35:56.240Z,75.56
2023-01-18T15:36:56.138Z,79.20
2023-01-18T15:37:56.061Z,80.02
2023-01-18T15:38:55.943Z,78.38
2023-01-18T15:39:55.854Z,78.17
2023-01-18T15:40:55.765Z,79.24
2023-01-18T15:41:55.649Z,78.00
2023-01-18T15:42:55.558Z,82.21
2023-01-18T17:32:48.297Z,139.39
2023-01-18T17:40:47.897Z,141.10
2023-01-18T17:46:47.662Z,141.98
2023-01-18T18:06:54.178Z,151.35
2023-01-18T18:07:47.533Z,151.43
2023-01-18T18:08:46.429Z,151.51
2023-01-18T18:09:46.333Z,150.06
2023-01-18T18:10:46.239Z,148.43
2023-01-18T18:11:46.145Z,151.61
2023-01-18T18:12:46.031Z,155.39
2023-01-18T18:13:45.960Z,154.43
2023-01-18T18:14:45.852Z,154.28
2023-01-18T18:15:45.806Z,153.32
2023-01-18T18:16:45.712Z,155.01
2023-01-18T18:17:45.585Z,153.55
2023-01-18T21:36:36.041Z,201.87
2023-01-18T21:37:35.997Z,197.93
2023-01-18T21:38:35.955Z,201.25
2023-01-18T21:39:35.942Z,201.90
2023-01-18T21:40:35.859Z,198.81
2023-01-18T21:41:35.813Z,199.48
2023-01-18T21:42:35.763Z,198.82
2023-01-18T21:43:35.712Z,202.59
2023-01-18T21:44:35.680Z,201.23
2023-01-18T21:45:35.657Z,201.95
2023-01-18T21:46:35.584Z,202.82
2023-01-18T21:47:35.546Z,201.58
2023-01-18T21:48:35.498Z,200.22
2023-01-18T23:02:33.120Z,210.42
2023-01-18T23:03:33.131Z,210.22
2023-01-18T23:04:33.067Z,210.45
2023-01-18T23:05:33.040Z,212.52
2023-01-18T23:06:33.016Z,213.45
2023-01-18T23:07:32.990Z,211.83
2023-01-18T23:08:32.963Z,210.46
2023-01-18T23:09:32.936Z,214.59
2023-01-18T23:10:32.916Z,209.46
2023-01-18T23:11:32.882Z,213.88
2023-01-18T23:12:32.851Z,209.73
2023-01-18T23:13:32.840Z,210.64
2023-01-18T23:14:32.809Z,211.78
2023-01-18T23:15:32.818Z,209.14
2023-01-18T23:16:32.757Z,213.40
2023-01-18T23:17:32.724Z,213.46
2023-01-18T23:18:32.740Z,213.60
2023-01-18T23:19:32.673Z,214.10
2023-01-18T23:20:32.650Z,214.42
2023-01-18T23:21:32.628Z,213.25
2023-01-18T23:22:32.594Z,215.07
2023-01-18T23:23:32.562Z,212.86
2023-01-18T23:24:32.521Z,214.99
2023-01-18T23:25:32.494Z,215.43
2023-01-18T23:26:32.482Z,213.59
2023-01-18T23:27:32.453Z,212.52
2023-01-18T23:28:32.406Z,214.54
2023-01-18T23:29:32.385Z,214.21
2023-01-18T23:30:32.382Z,215.12
2023-01-18T23:31:32.384Z,214.83
2023-01-18T23:32:32.313Z,216.98
2023-01-18T23:33:32.289Z,215.27
2023-01-18T23:34:32.273Z,212.06
2023-01-18T23:35:32.220Z,215.08
2023-01-18T23:36:32.209Z,216.87
2023-01-18T23:37:32.186Z,212.62
2023-01-18T23:38:32.155Z,214.85
2023-01-18T23:39:32.206Z,216.04
2023-01-18T23:40:32.113Z,215.02
2023-01-18T23:41:32.106Z,216.19
2023-01-18T23:42:32.077Z,214.81
2023-01-18T23:43:32.041Z,212.85
2023-01-18T23:44:32.030Z,215.08
2023-01-18T23:45:32.009Z,214.41
2023-01-18T23:46:32.097Z,216.31
2023-01-18T23:57:31.733Z,217.33
2023-01-18T23:58:31.713Z,215.75
2023-01-18T23:59:31.686Z,221.18
